Last 48 Hours

Stanford Met Tower

Hourly Data | America/Los_Angeles
as of 9/5/26 6:57 AM PDT
Date & Time Temp (°F) RH (%) Dew Pt (°F) Wind Dir (°) Wind Spd (mph) Wind Gust (mph) Solar Rad (W/m2) Pressure (mb) NowCast AQI Value (AQI) NowCast AQI Status Latest Rain (In) Daily Rain (In) Daily Min Temp (°F) Daily Max Temp (°F)
9/5/26 - 0600 48.3 87 45.5 SSW | 208 4.3 7.6 0 1,017.4 21 Good 0.00 0.00 47.8 51.6
9/5/26 - 0500 48.6 84 44.9 SSW | 208 4.5 7.3 0 1,017.4 21 Good 0.00 0.00 48.1 51.6
9/5/26 - 0400 49.4 80 44.5 SSW | 202 6.0 8.0 0 1,017.6 21 Good 0.00 0.00 49.1 51.6
9/5/26 - 0300 49.7 80 44.7 SSW | 208 5.0 8.2 0 1,017.8 21 Good 0.00 0.00 49.3 51.6
9/5/26 - 0200 50.1 79 44.7 SSW | 207 2.5 7.1 0 1,018.0 21 Good 0.00 0.00 49.3 51.6
9/5/26 - 0100 51.0 79 45.7 SSW | 208 3.7 7.9 0 1,018.0 21 Good 0.00 0.00 50.6 73.3
9/5/26 - 0000 51.9 80 47.1 SSW | 206 3.0 6.1 0 1,017.8 21 Good 0.00 0.00 50.7 73.3
9/4/26 - 2300 54.4 79 48.9 SSW | 204 2.3 7.4 0 1,017.6 21 Good 0.00 0.00 53.0 73.3
9/4/26 - 2200 56.9 75 49.9 NW | 306 0.7 5.4 0 1,017.8 21 Good 0.00 0.00 53.3 73.3
9/4/26 - 2100 61.9 61 49.5 WNW | 284 2.7 7.5 0 1,017.2 21 Good 0.00 0.00 53.3 73.3
9/4/26 - 2000 65.7 53 49.0 WNW | 283 3.6 9.9 11 1,016.4 21 Good 0.00 0.00 53.3 73.3
9/4/26 - 1900 70.0 42 46.9 W | 277 7.7 14.6 161 1,015.7 21 Good 0.00 0.00 53.3 73.3
9/4/26 - 1800 72.0 38 46.0 NW | 322 6.1 13.0 347 1,015.2 21 Good 0.00 0.00 53.3 73.3
9/4/26 - 1700 72.5 38 46.2 NW | 324 7.8 16.0 525 1,014.9 21 Good 0.00 0.00 53.3 73.3
9/4/26 - 1600 72.4 43 49.3 NNW | 336 8.3 17.7 671 1,015.1 21 Good 0.00 0.00 53.3 73.2
9/4/26 - 1500 71.5 49 52.2 N | 9 9.0 18.4 769 1,015.1 21 Good 0.00 0.00 53.3 72.5
9/4/26 - 1400 70.6 53 53.7 NNE | 19 6.5 13.4 825 1,014.9 21 Good 0.00 0.00 53.3 71.8
9/4/26 - 1300 69.3 60 55.7 N | 9 5.7 11.4 822 1,015.1 21 Good 0.00 0.00 53.3 70.8
9/4/26 - 1200 68.5 60 55.2 N | 356 4.5 11.0 740 1,015.5 21 Good 0.00 0.00 53.3 69.7
9/4/26 - 1100 66.9 60 53.6 NE | 36 0.9 8.2 631 1,015.7 21 Good 0.00 0.00 53.3 69.2
9/4/26 - 1000 63.3 74 55.8 NNW | 334 0.8 7.7 463 1,016.4 21 Good 0.00 0.00 53.3 65.4
9/4/26 - 0900 58.6 96 58.6 NW | 309 0.0 2.1 273 1,016.5 21 Good 0.00 0.00 53.3 61.3
9/4/26 - 0800 54.4 97 54.6 SSW | 205 1.3 5.0 120 1,016.6 21 Good 0.00 0.00 53.3 61.3
9/4/26 - 0700 53.9 97 54.1 SSW | 208 3.8 7.3 6 1,016.1 21 Good 0.00 0.00 53.4 61.3
9/4/26 - 0600 55.0 97 55.2 SSW | 208 3.2 8.4 0 1,015.7 21 Good 0.00 0.00 54.0 61.3
9/4/26 - 0500 56.4 97 56.6 SSW | 208 1.0 4.7 0 1,015.6 21 Good 0.00 0.00 55.0 61.3
9/4/26 - 0400 58.6 97 58.8 SW | 215 0.1 2.7 0 1,015.2 21 Good 0.00 0.00 57.3 61.3
9/4/26 - 0300 59.8 97 59.9 WNW | 300 0.3 4.7 0 1,014.8 21 Good 0.00 0.00 59.4 61.3
9/4/26 - 0200 60.6 97 60.8 N | 0 0.0 0.0 0 1,014.7 21 Good 0.00 0.00 60.2 61.3
9/4/26 - 0100 60.7 97 60.9 SSW | 208 0.8 4.8 0 1,014.6 21 Good 0.00 0.04 51.6 75.6
9/4/26 - 0000 60.4 97 60.5 WNW | 290 2.7 11.4 0 1,014.5 21 Good 0.02 0.04 51.6 75.6
9/3/26 - 2300 63.3 91 61.5 NW | 310 5.3 13.4 0 1,014.5 21 Good 0.02 0.02 51.6 75.6
9/3/26 - 2200 66.0 83 61.6 WSW | 241 4.1 10.7 0 1,014.2 21 Good 0.00 0.00 51.6 75.6
9/3/26 - 2100 67.0 80 61.5 SW | 229 5.7 15.7 0 1,013.9 21 Good 0.00 0.00 51.6 75.6
9/3/26 - 2000 67.0 81 61.9 SW | 231 9.7 23.7 9 1,013.2 21 Good 0.00 0.00 51.6 75.6
9/3/26 - 1900 68.6 74 61.1 SW | 232 12.0 23.3 67 1,013.4 21 Good 0.00 0.00 51.6 75.6
9/3/26 - 1800 70.2 67 59.7 WSW | 239 11.5 23.7 98 1,013.3 21 Good 0.00 0.00 51.6 75.6
9/3/26 - 1700 72.3 61 59.2 WSW | 239 13.1 25.9 394 1,013.4 21 Good 0.00 0.00 51.6 75.6
9/3/26 - 1600 72.7 61 59.6 WSW | 238 11.4 21.7 315 1,013.8 21 Good 0.00 0.00 51.6 75.6
9/3/26 - 1500 73.3 59 59.3 WSW | 242 8.6 16.6 436 1,014.2 21 Good 0.00 0.00 51.6 75.6
9/3/26 - 1400 73.8 58 59.1 SW | 236 6.4 14.0 549 1,014.3 21 Good 0.00 0.00 51.6 75.3
9/3/26 - 1300 72.8 59 58.6 WSW | 252 3.8 12.0 592 1,014.7 21 Good 0.00 0.00 51.6 75.3
9/3/26 - 1200 72.5 59 58.3 SW | 226 6.4 14.7 615 1,015.6 21 Good 0.00 0.00 51.6 74.0
9/3/26 - 1100 70.2 62 57.4 SSW | 212 5.7 14.3 635 1,015.7 21 Good 0.00 0.00 51.6 72.5
9/3/26 - 1000 67.7 66 56.9 SE | 143 3.7 11.4 324 1,016.9 21 Good 0.00 0.00 51.6 69.4
9/3/26 - 0900 64.7 73 56.8 ESE | 123 3.2 8.2 296 1,017.5 21 Good 0.00 0.00 51.6 66.8
9/3/26 - 0800 56.6 89 54.4 S | 183 3.9 8.0 109 1,017.9 21 Good 0.00 0.00 51.6 62.3
9/3/26 - 0700 52.1 92 50.8 SSW | 202 5.3 7.3 4 1,018.1 21 Good 0.00 0.00 51.6 54.9
9/3/26 - 0600 52.4 88 49.9 SSW | 204 5.1 7.6 0 1,018.1 21 Good 0.00 0.00 51.8 54.9
Max 73.8 97 61.9 - 13.1 25.9 825 1,018.1 21 - 0.02 0.04 60.2 75.6
Avg 62.6 74 54.2 - 4.8 11.0 221 1,015.8 21 - 0.00 - - -
Min 48.3 38 44.5 - 0.0 0.0 0 1,013.2 21 - 0.00 0.00 47.8 51.6
Total - - - - - - - - - - 0.04 - - -